Time;durP1;ratioP1;P1;durP2;ratioP2;P2;SDS_P1;SDS_P2;PMS_P1;PMS_P2;Temp;Humidity;BMP_temperature;BMP_pressure;BME280_temperature;BME280_humidity;BME280_pressure;Samples;Min_cycle;Max_cycle;Signal;HPM_P1;HPM_P2
2023/12/06 00:02:09;;;;;;;;;;;;;;;25.56;40.32;93719.81;4984585;28;7002;-88
2023/12/06 00:04:35;;;;;;;;;;;;;;;25.59;40.48;93720.75;4993972;28;9380;-88
2023/12/06 00:07:14;;;;;;;;;;;;;;;25.58;40.00;93714.50;4979084;28;9802;-88
2023/12/06 00:09:40;;;;;;;;;;;;;;;25.57;40.56;93718.53;4971344;28;7283;-89
2023/12/06 00:12:08;;;;;;;;;;;;;;;25.57;40.24;93713.03;5004065;28;8956;-89
2023/12/06 00:14:39;;;;;;;;;;;;;;;25.57;40.41;93723.31;5001764;28;7334;-86
2023/12/06 00:17:11;;;;;;;;;;;;;;;25.54;40.86;93708.56;4987348;28;8715;-86
2023/12/06 00:19:37;;;;;;;;;;;;;;;25.54;40.01;93716.09;4977542;28;7244;-86
2023/12/06 00:22:05;;;;;;;;;;;;;;;25.55;40.07;93706.56;4984699;28;8727;-86
2023/12/06 00:24:34;;;;;;;;;;;;;;;25.55;40.00;93710.06;4981794;28;6987;-87
2023/12/06 00:27:02;;;;;;;;;;;;;;;25.55;40.56;93721.09;4994620;28;8994;-86
2023/12/06 00:29:41;;;;;;;;;;;;;;;25.54;39.94;93719.59;4998835;28;9463;-86
2023/12/06 00:32:08;;;;;;;;;;;;;;;25.51;40.19;93715.16;4995971;28;9044;-87
2023/12/06 00:34:34;;;;;;;;;;;;;;;25.51;39.96;93726.16;4998785;28;7358;-86
2023/12/06 00:37:02;;;;;;;;;;;;;;;25.50;40.12;93719.16;4996497;28;7411;-86
2023/12/06 00:39:35;;;;;;;;;;;;;;;25.51;40.25;93720.66;4994423;28;7247;-86
2023/12/06 00:42:01;;;;;;;;;;;;;;;25.50;40.17;93719.16;4983528;28;8706;-86
2023/12/06 00:44:35;;;;;;;;;;;;;;;25.51;40.84;93719.91;4994359;28;8805;-86
2023/12/06 00:47:02;;;;;;;;;;;;;;;25.45;40.47;93711.72;4981006;28;7049;-86
2023/12/06 00:49:29;;;;;;;;;;;;;;;25.48;40.63;93715.44;4994197;28;7032;-87
2023/12/06 00:51:55;;;;;;;;;;;;;;;25.42;40.30;93719.03;4979080;28;8715;-86
2023/12/06 00:54:21;;;;;;;;;;;;;;;25.47;40.08;93722.94;4982441;28;7072;-86
2023/12/06 00:56:48;;;;;;;;;;;;;;;25.46;40.54;93734.50;4969219;28;7037;-86
2023/12/06 00:59:18;;;;;;;;;;;;;;;25.47;40.45;93731.22;4974040;28;8745;-86
2023/12/06 01:01:45;;;;;;;;;;;;;;;25.50;40.43;93734.94;5004556;28;6902;-86
2023/12/06 01:04:11;;;;;;;;;;;;;;;25.49;40.04;93730.72;4995213;28;9007;-86
2023/12/06 01:06:39;;;;;;;;;;;;;;;25.48;40.11;93731.97;4978351;28;8743;-86
2023/12/06 01:09:08;;;;;;;;;;;;;;;25.48;39.91;93735.47;4999067;28;8735;-86
2023/12/06 01:12:02;;;;;;;;;;;;;;;25.46;40.04;93732.50;4977627;28;7088;-86
2023/12/06 01:14:31;;;;;;;;;;;;;;;25.48;40.36;93737.47;4900070;29;7296;-86
2023/12/06 01:16:57;;;;;;;;;;;;;;;25.47;40.48;93738.75;4917976;29;8784;-86
2023/12/06 01:19:25;;;;;;;;;;;;;;;25.47;40.60;93742.22;4918030;29;8748;-86
2023/12/06 01:21:51;;;;;;;;;;;;;;;25.47;40.43;93738.75;4916632;29;8959;-87
2023/12/06 01:24:27;;;;;;;;;;;;;;;25.47;40.62;93747.00;4907076;29;8801;-85
2023/12/06 01:26:54;;;;;;;;;;;;;;;25.46;39.97;93746.25;4901299;29;8808;-85
2023/12/06 01:29:21;;;;;;;;;;;;;;;25.47;40.08;93741.50;4899907;29;8996;-85
2023/12/06 01:31:55;;;;;;;;;;;;;;;25.47;40.38;93747.72;4903840;29;6865;-85
2023/12/06 01:34:25;;;;;;;;;;;;;;;25.47;40.14;93742.22;4903132;29;8718;-85
2023/12/06 01:37:03;;;;;;;;;;;;;;;25.47;40.04;93747.72;4923771;29;9028;-85
2023/12/06 01:39:31;;;;;;;;;;;;;;;25.45;40.20;93744.75;4921922;29;9012;-85
2023/12/06 01:42:07;;;;;;;;;;;;;;;25.46;40.52;93734.50;4903283;29;9205;-86
2023/12/06 01:44:34;;;;;;;;;;;;;;;25.46;40.43;93738.00;4903286;29;7249;-85
2023/12/06 01:47:05;;;;;;;;;;;;;;;25.45;40.37;93738.53;4921178;29;9230;-85
2023/12/06 01:49:33;;;;;;;;;;;;;;;25.45;40.65;93744.75;4916558;29;9006;-85
2023/12/06 01:52:04;;;;;;;;;;;;;;;25.45;40.47;93735.78;4969690;28;10103;-86
2023/12/06 01:54:32;;;;;;;;;;;;;;;25.42;40.17;93734.81;4989422;28;8260;-85
2023/12/06 01:57:05;;;;;;;;;;;;;;;25.39;40.51;93731.06;4976518;28;6957;-85
2023/12/06 01:59:34;;;;;;;;;;;;;;;25.44;40.00;93737.78;4992382;28;8722;-85
2023/12/06 02:02:01;;;;;;;;;;;;;;;25.40;40.36;93740.81;4976613;28;8739;-85
2023/12/06 02:04:34;;;;;;;;;;;;;;;25.43;40.24;93748.06;4976447;28;7151;-85
2023/12/06 02:07:02;;;;;;;;;;;;;;;25.44;40.47;93757.06;4976469;28;7154;-85
2023/12/06 02:09:35;;;;;;;;;;;;;;;25.45;40.08;93758.53;4980545;28;7282;-85
2023/12/06 02:12:06;;;;;;;;;;;;;;;25.41;39.63;93750.56;4976060;28;7110;-86
2023/12/06 02:14:35;;;;;;;;;;;;;;;25.47;39.85;93766.28;4992251;28;8717;-85
2023/12/06 02:17:04;;;;;;;;;;;;;;;25.47;40.68;93769.75;4977516;28;8697;-85
2023/12/06 02:19:35;;;;;;;;;;;;;;;25.43;39.97;93767.31;4992333;28;8777;-85
2023/12/06 02:22:02;;;;;;;;;;;;;;;25.43;40.21;93766.56;4984877;28;9162;-85
2023/12/06 02:24:30;;;;;;;;;;;;;;;25.42;39.94;93765.81;4978406;28;6889;-87
2023/12/06 02:27:08;;;;;;;;;;;;;;;25.45;40.66;93774.31;4999477;28;9081;-86
2023/12/06 02:29:46;;;;;;;;;;;;;;;25.43;40.25;93778.34;4979087;28;7037;-86
2023/12/06 02:32:23;;;;;;;;;;;;;;;25.45;40.56;93769.53;4992848;28;8961;-85
2023/12/06 02:34:59;;;;;;;;;;;;;;;25.43;40.33;93772.81;4976945;28;6871;-86
2023/12/06 02:37:31;;;;;;;;;;;;;;;25.41;39.99;93766.34;4975752;28;9151;-86
2023/12/06 02:40:00;;;;;;;;;;;;;;;25.39;39.96;93766.13;4974745;28;9043;-87
2023/12/06 02:42:29;;;;;;;;;;;;;;;25.38;40.26;93762.59;4986890;28;8656;-86
2023/12/06 02:45:00;;;;;;;;;;;;;;;25.42;40.54;93774.09;4993998;28;6984;-86
2023/12/06 02:47:29;;;;;;;;;;;;;;;25.38;39.98;93764.63;4976816;28;8965;-87
2023/12/06 02:50:04;;;;;;;;;;;;;;;25.39;40.36;93768.88;4975506;28;7246;-86
2023/12/06 02:52:38;;;;;;;;;;;;;;;25.39;40.39;93772.38;4978513;28;8978;-86
2023/12/06 02:55:07;;;;;;;;;;;;;;;25.42;39.96;93767.84;4975310;28;9176;-86
2023/12/06 02:57:34;;;;;;;;;;;;;;;25.42;40.06;93770.59;4982274;28;7110;-86
2023/12/06 03:00:03;;;;;;;;;;;;;;;25.41;40.10;93761.56;4980438;28;8602;-86
2023/12/06 03:02:30;;;;;;;;;;;;;;;25.42;39.46;93763.06;4967968;28;9220;-86
2023/12/06 03:04:57;;;;;;;;;;;;;;;25.42;39.95;93767.84;4997067;28;8803;-86
2023/12/06 03:07:24;;;;;;;;;;;;;;;25.39;39.96;93760.59;4980252;28;8660;-86
2023/12/06 03:09:50;;;;;;;;;;;;;;;25.37;40.05;93761.13;4983846;28;8804;-87
2023/12/06 03:12:23;;;;;;;;;;;;;;;25.40;40.00;93764.84;4978777;28;8602;-87
2023/12/06 03:14:51;;;;;;;;;;;;;;;25.36;40.03;93769.91;4975662;28;7345;-87
2023/12/06 03:17:20;;;;;;;;;;;;;;;25.39;40.02;93769.63;4995997;28;6877;-87
2023/12/06 03:19:51;;;;;;;;;;;;;;;25.43;39.98;93770.06;4994783;28;7018;-87
2023/12/06 03:22:19;;;;;;;;;;;;;;;25.42;40.34;93774.09;4968683;28;9024;-87
2023/12/06 03:24:47;;;;;;;;;;;;;;;25.41;39.67;93767.06;4994430;28;7235;-87
2023/12/06 03:27:19;;;;;;;;;;;;;;;25.43;40.08;93772.09;4986222;28;7250;-87
2023/12/06 03:29:47;;;;;;;;;;;;;;;25.42;40.64;93767.84;4993792;28;9131;-87
2023/12/06 03:32:16;;;;;;;;;;;;;;;25.42;40.16;93765.81;4980426;28;6997;-87
2023/12/06 03:34:44;;;;;;;;;;;;;;;25.42;39.80;93776.13;4979200;28;6989;-87
2023/12/06 03:37:10;;;;;;;;;;;;;;;25.42;39.84;93785.09;4987052;28;9406;-87
2023/12/06 03:39:37;;;;;;;;;;;;;;;25.42;39.91;93782.34;4993987;28;6995;-87
2023/12/06 03:42:09;;;;;;;;;;;;;;;25.40;40.23;93776.59;4977802;28;8716;-87
2023/12/06 03:44:35;;;;;;;;;;;;;;;25.39;40.18;93774.38;4986143;28;9101;-87
2023/12/06 03:47:06;;;;;;;;;;;;;;;25.43;40.09;93783.09;4990973;28;8679;-87
2023/12/06 03:49:33;;;;;;;;;;;;;;;25.40;40.23;93773.13;4983902;28;7242;-87
2023/12/06 03:51:59;;;;;;;;;;;;;;;25.39;39.81;93777.13;4993303;28;8872;-87
2023/12/06 03:54:27;;;;;;;;;;;;;;;25.38;40.25;93778.41;4988115;28;7271;-85
2023/12/06 03:57:00;;;;;;;;;;;;;;;25.40;39.44;93775.88;4979056;28;8771;-86
2023/12/06 03:59:29;;;;;;;;;;;;;;;25.39;39.72;93771.63;4982575;28;9331;-86
2023/12/06 04:02:04;;;;;;;;;;;;;;;25.41;40.19;93778.09;4980836;28;8786;-85
2023/12/06 04:04:31;;;;;;;;;;;;;;;25.42;40.06;93776.13;4990564;28;9293;-86
2023/12/06 04:07:00;;;;;;;;;;;;;;;25.43;40.02;93780.34;4978782;28;9163;-86
2023/12/06 04:09:27;;;;;;;;;;;;;;;25.40;39.59;93776.59;4990341;28;7373;-86
2023/12/06 04:11:54;;;;;;;;;;;;;;;25.32;39.68;93775.72;4981080;28;7429;-86
2023/12/06 04:14:20;;;;;;;;;;;;;;;25.33;39.77;93770.97;4985924;28;7065;-86
2023/12/06 04:16:54;;;;;;;;;;;;;;;25.40;40.03;93779.34;4982169;28;8773;-85
2023/12/06 04:19:22;;;;;;;;;;;;;;;25.38;39.87;93770.16;4976704;28;9118;-86
2023/12/06 04:21:50;;;;;;;;;;;;;;;25.40;39.44;93779.34;4978991;28;7394;-86
2023/12/06 04:24:16;;;;;;;;;;;;;;;25.37;40.00;93776.91;4978807;28;8891;-85
2023/12/06 04:26:42;;;;;;;;;;;;;;;25.39;39.94;93779.88;4995424;28;7039;-85
2023/12/06 04:29:15;;;;;;;;;;;;;;;25.40;39.96;93782.09;4986622;28;8708;-86
2023/12/06 04:31:48;;;;;;;;;;;;;;;25.38;40.11;93778.41;4978309;28;9300;-86
2023/12/06 04:34:18;;;;;;;;;;;;;;;25.42;39.86;93787.13;4978974;28;8813;-86
2023/12/06 04:36:46;;;;;;;;;;;;;;;25.39;39.44;93791.63;4997036;28;7275;-86
2023/12/06 04:39:13;;;;;;;;;;;;;;;25.37;39.66;93794.19;4993753;28;7033;-85
2023/12/06 04:41:39;;;;;;;;;;;;;;;25.41;40.31;93796.63;4983792;28;7503;-86
2023/12/06 04:44:12;;;;;;;;;;;;;;;25.35;39.95;93790.44;4995888;28;8730;-86
2023/12/06 04:46:44;;;;;;;;;;;;;;;25.40;39.93;93800.66;4980415;28;6872;-86
2023/12/06 04:49:18;;;;;;;;;;;;;;;25.38;39.87;93798.41;4982034;28;8707;-86
2023/12/06 04:51:47;;;;;;;;;;;;;;;25.40;39.87;93795.13;4994353;28;7281;-86
2023/12/06 04:54:14;;;;;;;;;;;;;;;25.37;39.70;93793.44;4992248;28;8906;-86
2023/12/06 04:56:44;;;;;;;;;;;;;;;25.37;40.06;93801.69;4994346;28;8984;-87
2023/12/06 04:59:12;;;;;;;;;;;;;;;25.37;39.87;93799.69;4977013;28;8730;-86
2023/12/06 05:01:46;;;;;;;;;;;;;;;25.37;39.77;93798.94;4997513;28;8889;-85
2023/12/06 05:04:22;;;;;;;;;;;;;;;25.41;40.09;93810.38;4992557;28;9029;-86
2023/12/06 05:06:52;;;;;;;;;;;;;;;25.39;40.07;93813.66;4977569;28;8715;-86
2023/12/06 05:09:20;;;;;;;;;;;;;;;25.39;39.58;93810.16;4976448;28;6990;-86
2023/12/06 05:11:47;;;;;;;;;;;;;;;25.41;40.46;93813.13;4986674;28;8862;-86
2023/12/06 05:14:19;;;;;;;;;;;;;;;25.40;39.38;93817.88;4982457;28;7460;-85
2023/12/06 05:16:47;;;;;;;;;;;;;;;25.39;39.62;93815.66;4987127;28;7124;-85
2023/12/06 05:19:15;;;;;;;;;;;;;;;25.37;39.97;93815.44;4978211;28;7283;-85
2023/12/06 05:21:42;;;;;;;;;;;;;;;25.41;39.55;93816.63;4980632;28;7038;-86
2023/12/06 05:24:11;;;;;;;;;;;;;;;25.37;40.19;93815.44;4974190;28;8736;-85
2023/12/06 05:26:39;;;;;;;;;;;;;;;25.43;39.71;93818.88;4969060;28;8690;-86
2023/12/06 05:29:09;;;;;;;;;;;;;;;25.43;39.36;93819.63;4993603;28;8797;-86
2023/12/06 05:31:42;;;;;;;;;;;;;;;25.48;39.35;93818.06;4997120;28;7234;-85
2023/12/06 05:34:08;;;;;;;;;;;;;;;25.46;40.03;93814.34;4975653;28;9167;-84
2023/12/06 05:36:35;;;;;;;;;;;;;;;25.51;39.30;93817.03;4988986;28;7231;-85
2023/12/06 05:39:07;;;;;;;;;;;;;;;25.58;39.68;93819.16;4991962;28;7036;-84
2023/12/06 05:41:33;;;;;;;;;;;;;;;25.59;39.61;93815.16;4977356;28;7082;-84
2023/12/06 05:43:59;;;;;;;;;;;;;;;25.57;39.92;93823.19;4993424;28;8685;-84
2023/12/06 05:46:25;;;;;;;;;;;;;;;25.61;39.32;93826.38;4992144;28;7259;-84
2023/12/06 05:48:53;;;;;;;;;;;;;;;25.57;39.65;93817.69;4990319;28;8950;-84
2023/12/06 05:51:19;;;;;;;;;;;;;;;25.60;39.60;93824.88;4975885;28;8819;-84
2023/12/06 05:53:51;;;;;;;;;;;;;;;25.59;39.76;93822.66;4994576;28;7044;-84
2023/12/06 05:56:23;;;;;;;;;;;;;;;25.55;40.06;93822.97;4991985;28;8741;-84
2023/12/06 05:58:54;;;;;;;;;;;;;;;25.64;39.77;93830.84;4993928;28;7365;-85
2023/12/06 06:01:50;;;;;;;;;;;;;;;25.69;39.79;93832.00;4998292;28;8997;-84
2023/12/06 06:04:20;;;;;;;;;;;;;;;25.69;39.19;93818.22;4871664;29;8988;-85
2023/12/06 06:06:46;;;;;;;;;;;;;;;25.69;38.90;93821.72;4897935;29;7032;-84
2023/12/06 06:09:21;;;;;;;;;;;;;;;25.69;38.54;93824.50;4895465;29;9050;-85
2023/12/06 06:11:58;;;;;;;;;;;;;;;25.71;38.49;93821.22;4896082;29;8716;-84
2023/12/06 06:14:31;;;;;;;;;;;;;;;25.74;38.28;93828.44;4886832;29;7258;-85
2023/12/06 06:17:06;;;;;;;;;;;;;;;25.78;37.80;93828.84;4877035;29;8814;-85
2023/12/06 06:19:43;;;;;;;;;;;;;;;25.75;37.67;93825.13;4893485;29;7221;-85
2023/12/06 06:22:12;;;;;;;;;;;;;;;25.75;37.80;93827.91;4893097;29;7235;-85
2023/12/06 06:24:40;;;;;;;;;;;;;;;25.75;38.04;93833.41;4884590;29;8757;-86
2023/12/06 06:27:08;;;;;;;;;;;;;;;25.72;38.28;93828.97;4891788;29;9051;-86
2023/12/06 06:29:37;;;;;;;;;;;;;;;25.74;38.01;93831.94;4883563;29;7239;-85
2023/12/06 06:32:15;;;;;;;;;;;;;;;25.74;38.12;93847.72;4899298;29;7584;-85
2023/12/06 06:34:42;;;;;;;;;;;;;;;25.74;37.58;93839.44;4896872;29;7358;-85
2023/12/06 06:37:21;;;;;;;;;;;;;;;25.73;38.06;93835.22;4892367;29;7269;-86
2023/12/06 06:39:51;;;;;;;;;;;;;;;25.73;38.13;93843.47;4900733;28;9093;-84
2023/12/06 06:42:22;;;;;;;;;;;;;;;25.72;38.33;93839.97;4975691;28;8691;-84
2023/12/06 06:44:55;;;;;;;;;;;;;;;25.74;37.58;93837.44;4978372;28;9003;-84
2023/12/06 06:47:22;;;;;;;;;;;;;;;25.76;38.25;93845.16;4991501;28;7244;-85
2023/12/06 06:49:49;;;;;;;;;;;;;;;25.72;37.82;93837.22;4988669;28;7060;-84
2023/12/06 06:52:17;;;;;;;;;;;;;;;25.75;38.02;93849.22;4993644;28;7106;-84
2023/12/06 06:54:52;;;;;;;;;;;;;;;25.73;37.83;93849.72;4993090;28;7268;-85
2023/12/06 06:57:24;;;;;;;;;;;;;;;25.69;38.03;93856.78;4975919;28;8755;-85
2023/12/06 06:59:54;;;;;;;;;;;;;;;25.65;38.20;93856.34;4976866;28;6867;-85
2023/12/06 07:02:20;;;;;;;;;;;;;;;25.64;38.41;93863.91;4991846;28;7270;-84
2023/12/06 07:04:48;;;;;;;;;;;;;;;25.62;38.35;93862.94;4980497;28;9117;-84
2023/12/06 07:07:14;;;;;;;;;;;;;;;25.65;38.01;93868.13;4997393;28;9045;-85
2023/12/06 07:09:42;;;;;;;;;;;;;;;25.66;38.44;93864.13;4992840;28;8806;-84
2023/12/06 07:12:11;;;;;;;;;;;;;;;25.65;38.69;93873.63;4974604;28;7458;-85
2023/12/06 07:14:41;;;;;;;;;;;;;;;25.64;38.10;93883.19;4983660;28;8740;-85
2023/12/06 07:17:23;;;;;;;;;;;;;;;25.68;38.52;93877.34;4998915;28;7228;-85
2023/12/06 07:19:50;;;;;;;;;;;;;;;25.69;38.99;93882.34;4992261;28;7274;-85
2023/12/06 07:22:16;;;;;;;;;;;;;;;25.67;38.28;93892.38;4996444;28;8992;-85
2023/12/06 07:24:43;;;;;;;;;;;;;;;25.66;38.97;93893.66;4963573;28;8902;-88
2023/12/06 07:27:11;;;;;;;;;;;;;;;25.65;38.89;93895.66;4973957;28;9007;-88
2023/12/06 07:29:42;;;;;;;;;;;;;;;25.69;38.57;93896.09;4991401;28;8749;-88
2023/12/06 07:32:09;;;;;;;;;;;;;;;25.72;38.33;93900.56;4996257;28;10141;-88
2023/12/06 07:34:37;;;;;;;;;;;;;;;25.69;38.67;93893.34;4990923;28;9032;-88
2023/12/06 07:37:17;;;;;;;;;;;;;;;25.74;38.30;93903.56;4984576;28;7039;-88
2023/12/06 07:39:44;;;;;;;;;;;;;;;25.73;38.78;93912.34;4981752;28;9023;-88
2023/12/06 07:42:39;;;;;;;;;;;;;;;25.70;38.08;93911.38;4993031;28;7069;-89
2023/12/06 07:45:11;;;;;;;;;;;;;;;25.74;38.44;93922.84;4934924;29;7269;-88
2023/12/06 07:47:40;;;;;;;;;;;;;;;25.73;38.60;93924.09;4932428;29;9277;-88
2023/12/06 07:50:08;;;;;;;;;;;;;;;25.73;38.39;93926.84;4932049;29;9420;-88
2023/12/06 07:52:37;;;;;;;;;;;;;;;25.73;38.15;93928.88;4933024;29;8721;-88
2023/12/06 07:55:09;;;;;;;;;;;;;;;25.74;38.45;93927.59;4931283;29;9270;-88
2023/12/06 07:57:39;;;;;;;;;;;;;;;25.75;38.56;93929.81;4932525;29;7246;-88
2023/12/06 08:00:07;;;;;;;;;;;;;;;25.77;38.52;93929.31;4932864;29;8846;-88
2023/12/06 08:02:39;;;;;;;;;;;;;;;25.77;38.77;93927.31;4932445;29;6996;-88
2023/12/06 08:05:07;;;;;;;;;;;;;;;25.76;38.45;93925.06;4935892;29;9296;-88
2023/12/06 08:07:36;;;;;;;;;;;;;;;25.76;38.31;93931.31;4933764;29;7007;-86
2023/12/06 08:10:12;;;;;;;;;;;;;;;25.77;38.23;93930.06;4938604;28;7154;-86
2023/12/06 08:12:41;;;;;;;;;;;;;;;25.78;38.10;93937.03;4936504;29;7261;-86
2023/12/06 08:15:07;;;;;;;;;;;;;;;25.77;38.58;93934.81;4925754;29;8751;-86
2023/12/06 08:17:34;;;;;;;;;;;;;;;25.79;38.12;93940.56;4923310;28;7264;-86
2023/12/06 08:20:13;;;;;;;;;;;;;;;25.79;38.36;93938.53;4942005;28;9010;-86
2023/12/06 08:22:39;;;;;;;;;;;;;;;25.76;38.75;93934.06;4973758;28;8605;-86
2023/12/06 08:25:16;;;;;;;;;;;;;;;25.78;38.11;93942.56;4977761;28;7396;-86
2023/12/06 08:27:44;;;;;;;;;;;;;;;25.79;38.51;93943.31;4995014;28;7239;-86
2023/12/06 08:30:11;;;;;;;;;;;;;;;25.78;38.13;93941.81;4994613;28;7234;-86
2023/12/06 08:32:46;;;;;;;;;;;;;;;25.78;38.99;93941.81;5000474;28;8742;-86
2023/12/06 08:35:18;;;;;;;;;;;;;;;25.76;38.93;93938.81;4978867;28;9215;-83
2023/12/06 08:37:45;;;;;;;;;;;;;;;25.77;38.41;93946.59;4985422;28;6998;-83
2023/12/06 08:40:21;;;;;;;;;;;;;;;25.77;38.84;93938.31;4995117;28;7491;-83
2023/12/06 08:42:51;;;;;;;;;;;;;;;25.79;38.32;93949.56;4978602;28;7039;-84
2023/12/06 08:45:33;;;;;;;;;;;;;;;25.79;38.56;93948.81;4978199;28;7246;-83
2023/12/06 08:48:06;;;;;;;;;;;;;;;25.80;39.11;93944.78;4976519;28;6993;-83
2023/12/06 08:50:32;;;;;;;;;;;;;;;25.78;39.26;93950.06;4992640;28;9254;-83
2023/12/06 08:53:10;;;;;;;;;;;;;;;25.79;38.76;93952.31;4978261;28;7272;-83
2023/12/06 08:55:49;;;;;;;;;;;;;;;25.81;38.52;93954.53;4980261;28;8759;-84
2023/12/06 08:58:23;;;;;;;;;;;;;;;25.82;38.60;93958.78;4970633;28;8855;-84
2023/12/06 09:00:50;;;;;;;;;;;;;;;25.79;38.54;93951.56;4973280;28;7193;-84
2023/12/06 09:03:20;;;;;;;;;;;;;;;25.80;38.97;93953.78;4978082;28;7331;-84
2023/12/06 09:05:49;;;;;;;;;;;;;;;25.78;38.74;93950.81;4977464;28;6993;-83
2023/12/06 09:08:23;;;;;;;;;;;;;;;25.81;38.36;93952.53;4977769;28;8882;-84
2023/12/06 09:10:52;;;;;;;;;;;;;;;25.83;39.37;93941.75;4975582;28;8233;-83
2023/12/06 09:13:22;;;;;;;;;;;;;;;25.81;39.36;93947.03;4979762;28;9044;-83
2023/12/06 09:15:55;;;;;;;;;;;;;;;25.86;38.67;93959.25;4976757;28;9023;-84
2023/12/06 09:18:22;;;;;;;;;;;;;;;25.79;38.87;93948.81;4977552;28;6872;-84
2023/12/06 09:20:49;;;;;;;;;;;;;;;25.82;38.96;93948.50;4993735;28;7031;-83
2023/12/06 09:23:17;;;;;;;;;;;;;;;25.85;38.97;93950.22;4993449;28;7210;-83
2023/12/06 09:25:46;;;;;;;;;;;;;;;25.84;38.67;93945.22;4976799;28;7287;-83
2023/12/06 09:28:13;;;;;;;;;;;;;;;25.82;39.49;93948.50;4993708;28;8749;-83
2023/12/06 09:30:39;;;;;;;;;;;;;;;25.80;39.36;93934.50;4975982;28;9179;-83
2023/12/06 09:33:07;;;;;;;;;;;;;;;25.81;38.70;93940.78;4979211;28;7245;-84
2023/12/06 09:35:33;;;;;;;;;;;;;;;25.86;38.79;93946.19;4976720;28;7279;-83
2023/12/06 09:38:18;;;;;;;;;;;;;;;25.84;38.98;93940.47;5004318;28;8894;-85
2023/12/06 09:40:50;;;;;;;;;;;;;;;25.86;39.60;93943.44;4989006;28;7008;-83
2023/12/06 09:43:20;;;;;;;;;;;;;;;25.81;39.19;93936.00;4994671;28;8796;-87
2023/12/06 09:45:54;;;;;;;;;;;;;;;25.87;38.98;93944.94;4976723;28;7121;-86
2023/12/06 09:48:22;;;;;;;;;;;;;;;25.85;39.03;93947.47;4999748;28;9176;-87
2023/12/06 09:50:56;;;;;;;;;;;;;;;25.90;38.84;93962.44;4976948;28;7123;-86
2023/12/06 09:53:22;;;;;;;;;;;;;;;25.88;39.33;93968.44;4977269;28;9186;-87
2023/12/06 09:55:48;;;;;;;;;;;;;;;25.84;39.12;93961.75;4976648;28;7187;-87
2023/12/06 09:58:17;;;;;;;;;;;;;;;25.90;39.49;93968.66;4991419;28;9009;-87
2023/12/06 10:00:44;;;;;;;;;;;;;;;25.93;39.13;93964.88;4999715;28;9001;-86
2023/12/06 10:03:17;;;;;;;;;;;;;;;25.97;39.35;93970.06;4993034;28;9069;-86
2023/12/06 10:06:03;;;;;;;;;;;;;;;25.93;38.71;93964.88;4976662;28;9014;-86
2023/12/06 10:08:36;;;;;;;;;;;;;;;25.92;39.21;93968.16;4984873;28;8739;-86
2023/12/06 10:11:13;;;;;;;;;;;;;;;25.96;39.64;93963.84;4988266;28;8429;-87
2023/12/06 10:13:41;;;;;;;;;;;;;;;25.99;38.76;93962.06;4984475;28;9048;-87
2023/12/06 10:16:20;;;;;;;;;;;;;;;25.95;39.46;93959.59;5002465;28;7227;-87
2023/12/06 10:18:56;;;;;;;;;;;;;;;25.95;39.13;93958.84;4987760;28;8782;-87
2023/12/06 10:21:24;;;;;;;;;;;;;;;25.93;39.53;93959.38;4975980;28;8712;-87
2023/12/06 10:24:22;;;;;;;;;;;;;;;25.93;39.78;93962.13;4976607;28;7014;-87
2023/12/06 10:26:49;;;;;;;;;;;;;;;25.89;39.46;93956.16;4917619;29;7479;-86
2023/12/06 10:29:17;;;;;;;;;;;;;;;25.90;39.73;93960.41;4921245;29;7252;-86
2023/12/06 10:31:51;;;;;;;;;;;;;;;25.87;40.92;93955.94;4916126;29;8708;-87
2023/12/06 10:34:18;;;;;;;;;;;;;;;25.89;40.00;93958.94;4914472;29;8808;-88
2023/12/06 10:36:49;;;;;;;;;;;;;;;25.91;39.83;93956.38;4916447;29;7448;-87
2023/12/06 10:39:25;;;;;;;;;;;;;;;25.93;39.72;93953.84;4920097;29;8742;-87
2023/12/06 10:42:03;;;;;;;;;;;;;;;25.98;39.36;93960.56;4921273;29;8734;-87
2023/12/06 10:44:34;;;;;;;;;;;;;;;25.98;39.45;93957.78;4898472;29;6869;-87
2023/12/06 10:47:04;;;;;;;;;;;;;;;25.95;39.69;93962.34;4901574;29;8759;-87
2023/12/06 10:49:34;;;;;;;;;;;;;;;25.92;40.10;93957.88;4919583;29;7276;-87
2023/12/06 10:52:15;;;;;;;;;;;;;;;25.93;39.51;93956.59;4905728;29;6988;-86
2023/12/06 10:54:43;;;;;;;;;;;;;;;25.96;39.97;93952.06;4907971;29;9496;-83
2023/12/06 10:57:19;;;;;;;;;;;;;;;26.02;40.03;93949.97;4902731;29;7277;-83
2023/12/06 10:59:53;;;;;;;;;;;;;;;26.05;40.32;93960.72;4915908;29;9101;-84
2023/12/06 11:02:24;;;;;;;;;;;;;;;26.07;40.09;93951.91;4923763;28;8817;-84
2023/12/06 11:05:10;;;;;;;;;;;;;;;26.08;40.37;93953.38;4992743;28;7035;-84
2023/12/06 11:07:52;;;;;;;;;;;;;;;26.06;41.08;93951.16;4981789;28;9097;-84
2023/12/06 11:10:53;;;;;;;;;;;;;;;26.05;41.25;93955.19;4989319;28;7405;-84
2023/12/06 11:13:27;;;;;;;;;;;;;;;26.02;41.24;93950.72;4991518;28;7272;-84
2023/12/06 11:16:17;;;;;;;;;;;;;;;26.04;40.79;93948.19;4990875;28;7086;-83
2023/12/06 11:18:51;;;;;;;;;;;;;;;26.02;40.73;93945.22;4984669;28;7003;-84
2023/12/06 11:21:22;;;;;;;;;;;;;;;26.05;40.36;93943.41;4966112;28;9207;-83
2023/12/06 11:23:56;;;;;;;;;;;;;;;26.07;40.66;93954.66;4983260;28;9114;-83
2023/12/06 11:26:28;;;;;;;;;;;;;;;26.06;40.34;93951.16;4991999;28;7346;-83
2023/12/06 11:28:56;;;;;;;;;;;;;;;26.05;40.69;93955.19;4991389;28;7385;-85
2023/12/06 11:31:22;;;;;;;;;;;;;;;26.03;40.96;93952.19;4978463;28;9013;-84
2023/12/06 11:33:59;;;;;;;;;;;;;;;26.00;40.39;93960.78;4980799;28;9028;-83
2023/12/06 11:36:25;;;;;;;;;;;;;;;26.01;40.25;93954.72;4989604;28;8815;-84
2023/12/06 11:38:54;;;;;;;;;;;;;;;26.02;40.40;93958.97;4975740;28;9067;-84
2023/12/06 11:41:24;;;;;;;;;;;;;;;25.98;40.32;93950.28;4997871;28;10318;-84
2023/12/06 11:43:52;;;;;;;;;;;;;;;25.97;40.12;93943.28;4979404;28;7323;-84
2023/12/06 11:46:23;;;;;;;;;;;;;;;25.95;40.23;93951.31;4997959;28;8737;-84
2023/12/06 11:48:55;;;;;;;;;;;;;;;25.97;40.64;93948.03;5001703;28;9331;-83
2023/12/06 11:51:32;;;;;;;;;;;;;;;26.02;40.63;93958.22;4973946;28;7429;-84
2023/12/06 11:54:01;;;;;;;;;;;;;;;26.02;39.98;93964.50;4996476;28;8708;-84
2023/12/06 11:56:38;;;;;;;;;;;;;;;25.99;40.24;93951.03;4994919;28;7225;-83
2023/12/06 11:59:13;;;;;;;;;;;;;;;26.01;40.05;93960.25;4987110;28;7274;-85
2023/12/06 12:01:45;;;;;;;;;;;;;;;25.97;40.20;93959.06;4974978;28;6881;-84
2023/12/06 12:04:12;;;;;;;;;;;;;;;26.01;40.20;93959.50;4993152;28;8941;-86
2023/12/06 12:06:43;;;;;;;;;;;;;;;26.02;40.46;93958.97;4977344;28;7320;-87
2023/12/06 12:09:13;;;;;;;;;;;;;;;26.03;40.62;93968.72;4986211;28;8725;-86
2023/12/06 12:11:54;;;;;;;;;;;;;;;26.01;40.14;93960.25;4993712;28;7029;-87
2023/12/06 12:14:32;;;;;;;;;;;;;;;26.01;40.16;93960.25;4996016;28;7002;-87
2023/12/06 12:17:05;;;;;;;;;;;;;;;25.94;40.45;93952.59;4986761;28;9185;-87
2023/12/06 12:19:33;;;;;;;;;;;;;;;25.97;40.61;93959.81;4992428;28;7476;-86
2023/12/06 12:22:13;;;;;;;;;;;;;;;25.91;40.74;93959.16;5000408;28;9954;-87
2023/12/06 12:24:39;;;;;;;;;;;;;;;25.92;40.33;93965.41;4995294;28;7226;-87
2023/12/06 12:27:06;;;;;;;;;;;;;;;25.92;40.40;93963.41;4995666;28;9007;-87
2023/12/06 12:29:38;;;;;;;;;;;;;;;25.89;40.83;93964.44;4996923;28;8706;-87
2023/12/06 12:32:15;;;;;;;;;;;;;;;25.90;40.50;93960.41;4992283;28;7121;-87
2023/12/06 12:34:41;;;;;;;;;;;;;;;25.87;40.46;93958.72;4974535;28;9110;-87
2023/12/06 12:37:16;;;;;;;;;;;;;;;25.88;40.45;93953.94;4995382;28;9346;-86
2023/12/06 12:39:46;;;;;;;;;;;;;;;25.91;40.19;93952.88;4994292;28;9028;-87
2023/12/06 12:42:15;;;;;;;;;;;;;;;25.90;40.17;93954.88;4977935;28;8713;-86
2023/12/06 12:44:44;;;;;;;;;;;;;;;25.94;40.86;93958.09;4997595;28;7081;-86
2023/12/06 12:47:12;;;;;;;;;;;;;;;25.94;40.81;93966.38;4997915;28;9983;-86
2023/12/06 12:49:43;;;;;;;;;;;;;;;25.93;40.14;93964.13;5003571;28;9032;-85
2023/12/06 12:52:16;;;;;;;;;;;;;;;25.95;40.28;93967.84;4993844;28;9058;-86
2023/12/06 12:54:55;;;;;;;;;;;;;;;25.94;39.85;93960.88;4977021;28;7271;-86
2023/12/06 12:57:33;;;;;;;;;;;;;;;25.98;40.38;93971.56;4996096;28;7267;-86
2023/12/06 13:00:02;;;;;;;;;;;;;;;25.97;40.48;93967.31;4979762;28;6990;-86
2023/12/06 13:02:32;;;;;;;;;;;;;;;25.94;40.51;93969.13;4971460;28;8771;-86
2023/12/06 13:05:09;;;;;;;;;;;;;;;25.96;40.33;93974.09;4996085;28;7276;-86
2023/12/06 13:07:43;;;;;;;;;;;;;;;25.94;40.22;93969.13;4990719;28;9142;-86
2023/12/06 13:10:13;;;;;;;;;;;;;;;25.95;40.12;93973.34;4995615;28;9026;-86
2023/12/06 13:12:39;;;;;;;;;;;;;;;25.99;40.60;93981.34;4977175;28;9352;-86
2023/12/06 13:15:09;;;;;;;;;;;;;;;25.96;40.33;93977.63;4976415;28;7737;-86
2023/12/06 13:18:02;;;;;;;;;;;;;;;25.97;40.77;93979.09;4977231;28;7108;-86